Tiempo atmosférico en la estación meteorológica de Rivilla De Barajas, Ávila (925 m.)



Fecha
DESCASC
Temp. máxima en grados centígrados (hora)
DESCASC
Temp. mínima en grados centígrados (hora)
DESCASC
Temp. media en grados centígrados
DESCASC
Racha de viento máxima en m/sg (hora)
DESCASC
Velocidad máxima media en intervalos de 10 minutos(hora)
DESCASC
Precipitaciones diarias en mm
DESCASC
Precipitaciones de 00:00 a 06:00 en mm
DESCASC
Precipitaciones de 06:00 a 12:00 en mm
DESCASC
Precipitaciones de 12:00 a 18:00 en mm
DESCASC
Precipitaciones de 18:00 a 24:00 en mm
DESCASC
20-10-2019 9.8 (00:00) 5.6 (23:59) 7.7 10.83 (01:40) 7.22 (01:40) 3.8 0.2 3.2 0.4 0
19-10-2019 17.8 (15:50) 9.1 (09:20) 13.4 14.44 (15:10) 8.61 (15:50) 0.4 0 0 0 0.4
18-10-2019 15.2 (17:10) 10.8 (23:50) 13 12.22 (06:50) 7.5 (06:50) 5.6 0 5.6 0 0
17-10-2019 17.8 (15:20) 10.3 (00:00) 14 11.11 (11:10) 7.78 (14:10) 3.4 0.4 1.4 0 1.6
16-10-2019 16.2 (17:00) 6.4 (00:00) 11.3 11.39 (15:40) 7.5 (15:30) 0 0 0 0 0
15-10-2019 12.9 (15:30) 4.6 (00:00) 8.7 9.72 (01:20) 6.39 (01:10) 0 0 0 0 0
14-10-2019 18.2 (00:00) 6.4 (00:00) 12.3 16.39 (14:10) 11.11 (14:10) 8.4 0 2 5.6 0.8
13-10-2019 22.9 (17:50) 10.7 (00:00) 16.8 10 (18:00) 5.56 (12:40) 0 0 0 0 0
12-10-2019 26.2 (16:20) 17.1 (00:00) 21.7 13.89 (16:10) 6.11 (16:30) 0 0 0 0 0
11-10-2019 27 (15:40) 13.2 (00:00) 20.1 8.89 (19:00) 4.17 (19:00) 0 0 0 0 0
10-10-2019 23.1 (15:50) 5.5 (00:00) 14.3 7.5 (12:50) 5 (12:50) 0 0 0 0 0
09-10-2019 21.4 (17:30) 12.6 (00:00) 17 7.22 (14:00) 5.28 (10:00) 0 0 0 0 0
08-10-2019 27.7 (16:40) 14.5 (00:00) 21.1 8.33 (18:10) 5.28 (17:30) 0 0 0 0 0
07-10-2019 24.6 (17:30) 10.3 (00:00) 17.5 6.11 (01:20) 4.17 (01:30) 0 0 0 0 0
06-10-2019 23.2 (17:10) 9.2 (00:00) 16.2 5.83 (00:20) 3.89 (00:20) 0 0 0 0 0
05-10-2019 24 (17:20) 10.9 (00:00) 17.4 7.5 (17:10) 4.72 (18:50) 0 0 0 0 0
04-10-2019 22 (18:10) 11.4 (00:00) 16.7 8.33 (16:40) 6.39 (14:40) 0 0 0 0 0
03-10-2019 23.2 (18:20) 8.6 (00:00) 15.9 7.78 (16:20) 4.72 (17:10) 0 0 0 0 0
02-10-2019 18.4 (17:40) 8.6 (00:00) 13.5 10.28 (04:20) 7.22 (04:30) 0 0 0 0 0
01-10-2019 20.6 (17:10) 13 (00:00) 16.8 11.11 (17:20) 7.78 (18:30) 0 0 0 0 0
30-09-2019 27.1 (16:30) 11.8 (00:00) 19.5 9.17 (18:10) 6.67 (18:10) 0 0 0 0 0
29-09-2019 25.7 (16:30) 12.3 (00:00) 19 10 (17:20) 6.11 (15:40) 0 0 0 0 0
28-09-2019 25.4 (16:40) 10.6 (00:00) 18 6.67 (16:30) 3.61 (16:30) 0 0 0 0 0
27-09-2019 23.2 (17:50) 11.6 (00:00) 17.4 8.06 (16:10) 5.83 (17:30) 0 0 0 0 0
26-09-2019 24.5 (17:30) 10.5 (00:00) 17.5 8.61 (15:00) 5.83 (14:50) 0 0 0 0 0
25-09-2019 19.9 (17:50) 9.4 (00:00) 14.6 7.22 (00:40) 4.44 (01:00) 0 0 0 0 0
24-09-2019 21.1 (15:30) 10.7 (00:00) 15.9 11.11 (13:20) 8.61 (17:00) 0 0 0 0 0
23-09-2019 21.3 (17:20) 8.4 (00:00) 14.8 8.06 (14:10) 4.72 (16:00) 0 0 0 0 0
22-09-2019 17.7 (17:00) 10.2 (00:00) 14 11.94 (02:40) 9.72 (02:50) 4.8 4.6 0.2 0 0

Gráficas

Temp. máximas Temp. mínimas Temp. medias Precipitaciones Rachas de viento máximas Velocidades máximas media en intervalos de 10 minutos

Datos horarios

Fecha y hora oficial Temperatura (ºC) Velocidad del viento (km/h) Dirección del viento Racha (km/h) Dirección de racha Precipitación (mm) Presión (hPa) Tendencia (hPa) Humedad (%)
2019-10-21 23:00:00 5.3 4 Sudeste 6 Nordeste 0 -- -- 94
2019-10-21 22:00:00 6.1 2 Sudeste 10 Sudoeste 0 -- -- 90
2019-10-21 21:00:00 6.2 6 Sudoeste 15 Sudoeste 0 -- -- 86
2019-10-21 20:00:00 7.3 9 Sudoeste 18 Oeste 0 -- -- 78
2019-10-21 19:00:00 7.9 9 Sudeste 15 Este 0 -- -- 83
2019-10-21 18:00:00 8.9 7 Sudeste 14 Sudoeste 0 -- -- 79
2019-10-21 17:00:00 8 4 Sur 11 Sur 0.2 -- -- 83
2019-10-21 16:00:00 8.1 4 Sur 17 Sudoeste 1.6 -- -- 78
2019-10-21 15:00:00 10.1 9 Nordeste 14 Nordeste 0 -- -- 72
2019-10-21 14:00:00 10.6 8 Nordeste 14 Norte 0 -- -- 72
2019-10-21 13:00:00 10.1 5 Nordeste 9 Norte 0 -- -- 73
2019-10-21 12:00:00 9.1 6 Este 11 Este 0 -- -- 78
2019-10-21 11:00:00 7.8 3 Este 5 Este 0 -- -- 82
2019-10-21 10:00:00 5.4 2 Sudoeste 7 Sudoeste 0 -- -- 92
2019-10-21 09:00:00 3.2 5 Sudoeste 10 Sudoeste 0 -- -- 94
2019-10-21 08:00:00 3.6 6 Sudoeste 9 Sudoeste 0 -- -- 93
2019-10-21 07:00:00 3.3 6 Sudoeste 12 Sudoeste 0 -- -- 93
2019-10-21 06:00:00 3.9 8 Sudoeste 13 Sudoeste 0 -- -- 89
2019-10-21 05:00:00 4.4 8 Sudoeste 13 Oeste 0 -- -- 87
2019-10-21 04:00:00 4.5 9 Sudoeste 13 Sudoeste 0 -- -- 89
2019-10-21 03:00:00 5 6 Sudoeste 10 Sudoeste 0 -- -- 92
2019-10-21 02:00:00 5.1 5 Sudoeste 10 Sudoeste 0 -- -- 92
2019-10-21 01:00:00 5.4 8 Sudoeste 19 Noroeste 0 -- -- 93
2019-10-21 00:00:00 5.6 10 Oeste 22 Noroeste 0 -- -- 91
2019-10-20 23:00:00 5.8 7 Sudoeste 13 Sudoeste 0 -- -- 89
2019-10-20 22:00:00 6 6 Sudoeste 10 Sudoeste 0 -- -- 92
2019-10-20 21:00:00 6.2 5 Sudoeste 10 Sudoeste 0 -- -- 92
2019-10-20 20:00:00 6.4 4 Sudoeste 8 Oeste 0 -- -- 89
2019-10-20 19:00:00 7 6 Noroeste 17 Norte 0 -- -- 90
2019-10-20 18:00:00 7.7 15 Oeste 24 Oeste 0 -- -- 88
2019-10-20 17:00:00 8.2 8 Norte 16 Noroeste 0.2 -- -- 86
2019-10-20 16:00:00 7.7 12 Noroeste 24 Norte 0 -- -- 87
2019-10-20 15:00:00 7.6 17 Norte 30 Norte 0 -- -- 88
2019-10-20 14:00:00 6.8 20 Norte 31 Noroeste 0 -- -- 89
2019-10-20 13:00:00 6.4 23 Noroeste 31 Noroeste 0.2 -- -- 94
2019-10-20 12:00:00 6.2 16 Noroeste 32 Oeste 1.2 -- -- 97
2019-10-20 11:00:00 6.3 15 Oeste 24 Oeste 0 -- -- 95
2019-10-20 10:00:00 6.1 16 Oeste 27 Noroeste 0 -- -- 95
2019-10-20 09:00:00 6.1 19 Oeste 27 Oeste 0.2 -- -- 95
2019-10-20 08:00:00 6.5 13 Oeste 28 Oeste 1.6 -- -- 96
2019-10-20 07:00:00 7.5 13 Sudoeste 21 Sudoeste 0.2 -- -- 93
2019-10-20 06:00:00 7.7 13 Sudoeste 23 Sudoeste 0 -- -- 90
2019-10-20 05:00:00 7.3 13 Oeste 23 Oeste 0 -- -- 91
2019-10-20 04:00:00 7 16 Oeste 28 Oeste 0 -- -- 90
2019-10-20 03:00:00 7.6 13 Oeste 35 Oeste 0 -- -- 90
2019-10-20 02:00:00 8.4 22 Oeste 39 Oeste 0 -- -- 88
2019-10-20 01:00:00 8.6 17 Oeste 32 Oeste 0.2 -- -- 91
2019-10-20 00:00:00 9.8 23 Oeste 48 Oeste 0 -- -- 90
2019-10-19 23:00:00 12.1 21 Oeste 36 Sudoeste 0 -- -- 86
2019-10-19 22:00:00 12.8 12 Sudoeste 31 Sudoeste 0 -- -- 77
2019-10-19 21:00:00 13.1 20 Sudoeste 40 Sudoeste 0 -- -- 72
2019-10-19 20:00:00 13 10 Sur 26 Sur 0.4 -- -- 79
2019-10-19 19:00:00 13.7 9 Sur 26 Sur 0 -- -- 75
2019-10-19 18:00:00 15.6 14 Sur 29 Sudoeste 0 -- -- 61
2019-10-19 17:00:00 16.6 19 Sudoeste 46 Sudoeste 0 -- -- 59
2019-10-19 16:00:00 17.6 27 Sudoeste 52 Sudoeste 0 -- -- 56
2019-10-19 15:00:00 16.4 30 Sudoeste 49 Sudoeste 0 -- -- 57
2019-10-19 14:00:00 15.8 23 Sudoeste 38 Sudoeste 0 -- -- 59
2019-10-19 13:00:00 14.6 18 Sudoeste 33 Sudoeste 0 -- -- 66
2019-10-19 12:00:00 12.5 15 Sudoeste 32 Sudoeste 0 -- -- 73
2019-10-19 11:00:00 11.1 15 Oeste 36 Sudoeste 0 -- -- 78
2019-10-19 10:00:00 9.8 5 Sur 14 Sudoeste 0 -- -- 87
2019-10-19 09:00:00 9.4 9 Oeste 17 Oeste 0 -- -- 87
2019-10-19 08:00:00 9.6 5 Sudoeste 18 Sudoeste 0 -- -- 88
2019-10-19 07:00:00 9.7 5 Sudoeste 21 Sudoeste 0 -- -- 87
2019-10-19 06:00:00 9.5 5 Sudoeste 19 Oeste 0 -- -- 88
2019-10-19 05:00:00 10 11 Sudoeste 23 Sudoeste 0 -- -- 89
2019-10-19 04:00:00 9.7 17 Sudoeste 26 Sudoeste 0 -- -- 90
2019-10-19 03:00:00 10 14 Sudoeste 24 Sudoeste 0 -- -- 88
2019-10-19 02:00:00 9.8 10 Sudoeste 18 Sudoeste 0 -- -- 92
2019-10-19 01:00:00 10 9 Sudoeste 17 Oeste 0 -- -- 90
2019-10-19 00:00:00 10.8 7 Sudoeste 20 Oeste 0 -- -- 85
2019-10-18 23:00:00 11.5 16 Oeste 28 Oeste 0 -- -- 83
2019-10-18 22:00:00 12.6 17 Oeste 28 Oeste 0 -- -- 79
2019-10-18 21:00:00 13 10 Oeste 15 Oeste 0 -- -- 86
2019-10-18 20:00:00 13.1 11 Noroeste 18 Noroeste 0 -- -- 87
2019-10-18 19:00:00 14.2 13 Noroeste 19 Noroeste 0 -- -- 84
2019-10-18 18:00:00 15 9 Oeste 14 Norte 0 -- -- 82
2019-10-18 17:00:00 15.1 10 Noroeste 20 Noroeste 0 -- -- 83
2019-10-18 16:00:00 15.1 15 Noroeste 26 Noroeste 0 -- -- 84
2019-10-18 15:00:00 14.3 21 Noroeste 31 Noroeste 0 -- -- 88
2019-10-18 14:00:00 14 22 Oeste 32 Oeste 0 -- -- 91
2019-10-18 13:00:00 12.9 15 Noroeste 22 Noroeste 0 -- -- 96
2019-10-18 12:00:00 12.8 14 Noroeste 21 Noroeste 0 -- -- 98
2019-10-18 11:00:00 12.9 13 Noroeste 21 Oeste 0 -- -- 98
2019-10-18 10:00:00 13.1 5 Oeste 17 Oeste 0 -- -- 98
2019-10-18 09:00:00 13 15 Oeste 31 Oeste 0 -- -- 98
2019-10-18 08:00:00 13.4 15 Oeste 33 Oeste 2 -- -- 98
2019-10-18 07:00:00 13.8 24 Oeste 44 Oeste 3.6 -- -- 97
2019-10-18 06:00:00 14.7 23 Sudoeste 41 Oeste 0 -- -- 92
2019-10-18 05:00:00 14 10 Sudoeste 27 Sudoeste 0 -- -- 94
2019-10-18 04:00:00 14.3 14 Sudoeste 31 Sudoeste 0 -- -- 91
2019-10-18 03:00:00 14.4 20 Oeste 40 Sudoeste 0 -- -- 90
2019-10-18 02:00:00 14.7 20 Sudoeste 32 Sudoeste 0 -- -- 90
2019-10-18 01:00:00 14.4 15 Sudoeste 33 Sudoeste 0 -- -- 92
2019-10-18 00:00:00 14.2 15 Sudoeste 28 Sudoeste 0 -- -- 93
2019-10-17 23:00:00 13.9 9 Sudoeste 24 Sur 1.2 -- -- 95
2019-10-17 22:00:00 13.9 8 Oeste 22 Sudoeste 0.2 -- -- 94
2019-10-17 21:00:00 14.1 12 Oeste 20 Oeste 0 -- -- 92
2019-10-17 20:00:00 14.4 12 Oeste 31 Sudoeste 0.2 -- -- 90
2019-10-17 19:00:00 15.3 19 Sudoeste 35 Oeste 0 -- -- 83
2019-10-17 18:00:00 16.5 23 Oeste 38 Sudoeste 0 -- -- 77
2019-10-17 17:00:00 17.1 20 Sudoeste 38 Oeste 0 -- -- 73
2019-10-17 16:00:00 16.9 21 Oeste 39 Oeste 0 -- -- 75
2019-10-17 15:00:00 17.3 23 Oeste 39 Oeste 0 -- -- 73
2019-10-17 14:00:00 17.1 26 Oeste 39 Oeste 0 -- -- 75
2019-10-17 13:00:00 15.4 21 Oeste 36 Sudoeste 0 -- -- 83
2019-10-17 12:00:00 14.9 22 Oeste 40 Sudoeste 0 -- -- 83
2019-10-17 11:00:00 13.6 23 Oeste 38 Sudoeste 0 -- -- 87
2019-10-17 10:00:00 12.9 23 Sudoeste 39 Sudoeste 0 -- -- 88
2019-10-17 09:00:00 12.3 22 Sudoeste 36 Sudoeste 0 -- -- 89
2019-10-17 08:00:00 10.7 17 Sudoeste 35 Oeste 1.2 -- -- 95
2019-10-17 07:00:00 10.5 18 Sudoeste 32 Sudoeste 0.2 -- -- 91
2019-10-17 06:00:00 10.9 17 Oeste 28 Oeste 0 -- -- 84
2019-10-17 05:00:00 10.8 14 Sudoeste 25 Sudoeste 0.2 -- -- 85
2019-10-17 04:00:00 10.9 15 Sudoeste 27 Sudoeste 0.2 -- -- 83
2019-10-17 03:00:00 11.2 11 Sudoeste 29 Oeste 0 -- -- 76
2019-10-17 02:00:00 11.6 12 Sudoeste 24 Sudoeste 0 -- -- 73
2019-10-17 01:00:00 11.3 9 Oeste 22 Sudoeste 0 -- -- 73
2019-10-17 00:00:00 11.4 15 Sudoeste 26 Sudoeste 0 -- -- 73
2019-10-16 23:00:00 10.9 12 Sudoeste 25 Sudoeste 0 -- -- 75
2019-10-16 22:00:00 10.8 16 Sudoeste 26 Sudoeste 0 -- -- 74
2019-10-16 21:00:00 11.4 11 Sudoeste 31 Oeste 0 -- -- 72
2019-10-16 20:00:00 12.4 20 Oeste 35 Sudoeste 0 -- -- 67
2019-10-16 19:00:00 14.6 26 Oeste 35 Oeste 0 -- -- 58
2019-10-16 18:00:00 15.3 22 Oeste 37 Oeste 0 -- -- 52
2019-10-16 17:00:00 16.2 20 Oeste 35 Oeste 0 -- -- 47
2019-10-16 16:00:00 16 26 Oeste 41 Oeste 0 -- -- 42
2019-10-16 15:00:00 15.5 21 Oeste 35 Sudoeste 0 -- -- 45
2019-10-16 14:00:00 15 21 Oeste 33 Oeste 0 -- -- 46
2019-10-16 13:00:00 13.4 18 Oeste 28 Sudoeste 0 -- -- 55
2019-10-16 12:00:00 11.7 15 Sudoeste 34 Sudoeste 0 -- -- 66
2019-10-16 11:00:00 11.1 15 Sudoeste 29 Sudoeste 0 -- -- 73
2019-10-16 10:00:00 8.5 13 Sudoeste 23 Sudoeste 0 -- -- 83
2019-10-16 09:00:00 7.6 9 Sudoeste 17 Sudoeste 0 -- -- 84
2019-10-16 08:00:00 6.8 12 Sudoeste 19 Oeste 0 -- -- 86
2019-10-16 07:00:00 7.2 11 Sudoeste 19 Sudoeste 0 -- -- 85
2019-10-16 06:00:00 7.6 6 Sudoeste 14 Sudoeste 0 -- -- 83
2019-10-16 05:00:00 7.7 6 Sudoeste 19 Sudoeste 0 -- -- 81
2019-10-16 04:00:00 8.6 10 Sudoeste 18 Sudoeste 0 -- -- 75
2019-10-16 03:00:00 8.6 11 Sudoeste 18 Sudoeste 0 -- -- 76
2019-10-16 02:00:00 9 9 Sudoeste 13 Sudoeste 0 -- -- 76
2019-10-16 01:00:00 9.7 8 Sudoeste 15 Sudoeste 0 -- -- 74
2019-10-16 00:00:00 9.6 9 Sudoeste 15 Sudoeste 0 -- -- 74
2019-10-15 23:00:00 9.4 9 Sudoeste 19 Sudoeste 0 -- -- 76
2019-10-15 22:00:00 9.6 10 Sudoeste 17 Sudoeste 0 -- -- 76
2019-10-15 21:00:00 9.6 9 Sudoeste 13 Sudoeste 0 -- -- 72
2019-10-15 20:00:00 10.5 7 Oeste 19 Oeste 0 -- -- 66
2019-10-15 19:00:00 12.3 17 Oeste 24 Oeste 0 -- -- 58
2019-10-15 18:00:00 12.3 13 Oeste 22 Oeste 0 -- -- 59
2019-10-15 17:00:00 12.1 13 Oeste 24 Oeste 0 -- -- 61
2019-10-15 16:00:00 12 14 Oeste 29 Oeste 0 -- -- 60
2019-10-15 15:00:00 12.3 11 Oeste 25 Oeste 0 -- -- 59
2019-10-15 14:00:00 11.3 12 Oeste 25 Sudoeste 0 -- -- 63
2019-10-15 13:00:00 10 13 Oeste 27 Oeste 0 -- -- 70
2019-10-15 12:00:00 9.6 20 Oeste 28 Oeste 0 -- -- 77
2019-10-15 11:00:00 8.2 18 Oeste 25 Oeste 0 -- -- 82
2019-10-15 10:00:00 6.5 13 Oeste 22 Sudoeste 0 -- -- 87
2019-10-15 09:00:00 5.1 13 Sudoeste 23 Sudoeste 0 -- -- 88
2019-10-15 08:00:00 4.7 13 Sudoeste 24 Sudoeste 0 -- -- 90
2019-10-15 07:00:00 4.9 15 Sudoeste 25 Oeste 0 -- -- 89
2019-10-15 06:00:00 5.1 14 Sudoeste 30 Sudoeste 0 -- -- 89
2019-10-15 05:00:00 5 19 Sudoeste 30 Sudoeste 0 -- -- 87
2019-10-15 04:00:00 4.8 14 Sudoeste 28 Sudoeste 0 -- -- 89
2019-10-15 03:00:00 5.5 17 Oeste 35 Oeste 0 -- -- 86
2019-10-15 02:00:00 5.7 21 Oeste 35 Oeste 0 -- -- 85
2019-10-15 01:00:00 5.9 22 Oeste 33 Sudoeste 0 -- -- 85
2019-10-15 00:00:00 6.4 20 Oeste 31 Oeste 0 -- -- 85
2019-10-14 23:00:00 7 19 Oeste 37 Oeste 0.2 -- -- 87
2019-10-14 22:00:00 7.1 22 Oeste 37 Oeste 0 -- -- 90
2019-10-14 21:00:00 7.9 23 Oeste 35 Oeste 0 -- -- 85
2019-10-14 20:00:00 7.9 19 Oeste 45 Oeste 0.2 -- -- 88
2019-10-14 19:00:00 8.8 30 Oeste 46 Oeste 0.4 -- -- 85
2019-10-14 18:00:00 9.3 19 Oeste 35 Sudoeste 0.2 -- -- 83
2019-10-14 17:00:00 8.7 23 Sudoeste 48 Oeste 2.6 -- -- 89
2019-10-14 16:00:00 9.8 26 Oeste 46 Oeste 2.6 -- -- 93
2019-10-14 15:00:00 13.3 33 Oeste 59 Oeste 0.2 -- -- 66
2019-10-14 14:00:00 14.9 35 Oeste 51 Oeste 0 -- -- 58
2019-10-14 13:00:00 14.1 29 Oeste 47 Oeste 0 -- -- 62
2019-10-14 12:00:00 13 30 Oeste 46 Sudoeste 0 -- -- 74
2019-10-14 11:00:00 10.8 16 Oeste 36 Oeste 0.4 -- -- 94
2019-10-14 10:00:00 9.5 32 Oeste 44 Oeste 1.6 -- -- 91
2019-10-14 09:00:00 14.6 23 Sudoeste 51 Sudoeste 0 -- -- 63
2019-10-14 08:00:00 15.2 20 Sudoeste 32 Sudoeste 0 -- -- 62
2019-10-14 07:00:00 12.8 15 Oeste 30 Oeste 0 -- -- 77
2019-10-14 06:00:00 16.8 9 Sur 25 Sur 0 -- -- 55
2019-10-14 05:00:00 17.8 15 Sur 30 Sur 0 -- -- 51
2019-10-14 04:00:00 16.7 4 Sur 17 Sudoeste 0 -- -- 54
2019-10-14 03:00:00 17.1 9 Sudoeste 17 Sudoeste 0 -- -- 54
2019-10-14 02:00:00 16.2 5 Sur 22 Sur 0 -- -- 61
2019-10-14 01:00:00 17 14 Sur 23 Sur 0 -- -- 56
2019-10-14 00:00:00 18.2 10 Sur 26 Sur 0 -- -- 51
2019-10-13 23:00:00 17.7 12 Sur 26 Sur 0 -- -- 52
2019-10-13 22:00:00 17.4 13 Sur 24 Sur 0 -- -- 49
2019-10-13 21:00:00 16.4 5 Sur 15 Sur 0 -- -- 46
2019-10-13 20:00:00 18 9 Sur 30 Sudeste 0 -- -- 47
2019-10-13 19:00:00 20.5 14 Sur 35 Sur 0 -- -- 40
2019-10-13 18:00:00 22.5 18 Sur 36 Sur 0 -- -- 34
2019-10-13 17:00:00 22.7 19 Oeste 33 Oeste 0 -- -- 37
2019-10-13 16:00:00 22.6 18 Oeste 28 Oeste 0 -- -- 36
2019-10-13 15:00:00 21.2 13 Oeste 27 Oeste 0 -- -- 44
2019-10-13 14:00:00 20.2 15 Oeste 24 Oeste 0 -- -- 49
2019-10-13 13:00:00 18.8 12 Oeste 26 Oeste 0 -- -- 55
2019-10-13 12:00:00 17.9 7 Norte 12 Sur 0 -- -- 60
2019-10-13 11:00:00 15.2 8 Sudoeste 21 Oeste 0 -- -- 71
2019-10-13 10:00:00 12.9 14 Oeste 29 Sudoeste 0 -- -- 86
2019-10-13 09:00:00 10.7 13 Oeste 19 Oeste 0 -- -- 91
2019-10-13 08:00:00 12 7 Sur 19 Sudoeste 0 -- -- 85
2019-10-13 07:00:00 12.2 13 Sudoeste 30 Sudoeste 0 -- -- 90
2019-10-13 06:00:00 12.4 13 Sudoeste 23 Oeste 0 -- -- 90
2019-10-13 05:00:00 14.6 3 Nordeste 23 Sur 0 -- -- 70
2019-10-13 04:00:00 16.8 9 Sur 21 Sur 0 -- -- 59
2019-10-13 03:00:00 16.7 12 Sur 20 Sur 0 -- -- 57
2019-10-13 02:00:00 16.3 6 Sudeste 16 Sudeste 0 -- -- 55
2019-10-13 01:00:00 17.6 5 Sur 31 Sudoeste 0 -- -- 50
2019-10-13 00:00:00 18.3 11 Sudoeste 21 Sudoeste 0 -- -- 47
2019-10-12 23:00:00 19.5 9 Sur 28 Sudeste 0 -- -- 43
2019-10-12 22:00:00 20.5 12 Sur 35 Sur 0 -- -- 40
2019-10-12 21:00:00 20.2 8 Sur 22 Sur 0 -- -- 41
2019-10-12 20:00:00 21.7 12 Sur 29 Sur 0 -- -- 38
2019-10-12 19:00:00 23.6 17 Sur 40 Sudoeste 0 -- -- 36
2019-10-12 18:00:00 24.9 17 Sur 40 Sudoeste 0 -- -- 34
2019-10-12 17:00:00 25.4 21 Sur 50 Sur 0 -- -- 33
2019-10-12 16:00:00 25.9 18 Sudoeste 40 Sudoeste 0 -- -- 33
2019-10-12 15:00:00 25.2 18 Sudoeste 33 Oeste 0 -- -- 31
2019-10-12 14:00:00 24.3 18 Sudoeste 35 Sudoeste 0 -- -- 34
2019-10-12 13:00:00 23.3 16 Sudoeste 32 Sur 0 -- -- 36
2019-10-12 12:00:00 22.9 12 Sudoeste 25 Sudoeste 0 -- -- 37
2019-10-12 11:00:00 21.8 12 Sudoeste 23 Sur 0 -- -- 38
2019-10-12 10:00:00 20.1 9 Sudoeste 24 Oeste 0 -- -- 42
2019-10-12 09:00:00 20.1 13 Sudoeste 27 Sur 0 -- -- 44
2019-10-12 08:00:00 20.2 14 Sudoeste 26 Sur 0 -- -- 43
2019-10-12 07:00:00 19.2 10 Sudoeste 18 Sudoeste 0 -- -- 47
2019-10-12 06:00:00 17.7 8 Oeste 13 Oeste 0 -- -- 55
2019-10-12 05:00:00 17.5 10 Oeste 15 Oeste 0 -- -- 54
2019-10-12 04:00:00 18.1 8 Oeste 17 Sudoeste 0 -- -- 51
2019-10-12 03:00:00 19.9 5 Sur 22 Sudoeste 0 -- -- 48
2019-10-12 02:00:00 20.3 9 Sur 22 Sur 0 -- -- 49
2019-10-12 01:00:00 20.4 13 Sur 27 Sudoeste 0 -- -- 51
2019-10-12 00:00:00 18 5 Sudoeste 11 Sudoeste 0 -- -- 58
2019-10-11 23:00:00 17.2 5 Sudoeste 8 Sudoeste 0 -- -- 60
2019-10-11 22:00:00 19.5 0 Calma 16 Sudoeste 0 -- -- 54
2019-10-11 21:00:00 20.9 8 Sur 18 Sur 0 -- -- 52
2019-10-11 20:00:00 22 11 Sudoeste 27 Sur 0 -- -- 49
2019-10-11 19:00:00 24.1 15 Sur 32 Sudoeste 0 -- -- 44
2019-10-11 18:00:00 24.8 10 Oeste 20 Sudoeste 0 -- -- 43
2019-10-11 17:00:00 26.5 12 Oeste 19 Oeste 0 -- -- 38
2019-10-11 16:00:00 26.8 5 Sudeste 18 Sudoeste 0 -- -- 38
2019-10-11 15:00:00 25.9 9 Oeste 18 Oeste 0 -- -- 40
2019-10-11 14:00:00 25.9 4 Norte 13 Noroeste 0 -- -- 39
2019-10-11 13:00:00 25 6 Norte 12 Norte 0 -- -- 41
2019-10-11 12:00:00 24 5 Nordeste 9 Este 0 -- -- 44
2019-10-11 11:00:00 22.7 4 Sudeste 6 Este 0 -- -- 47
2019-10-11 10:00:00 18.9 4 Sur 6 Sur 0 -- -- 56
2019-10-11 09:00:00 14.7 4 Sur 6 Sur 0 -- -- 66
2019-10-11 08:00:00 14.6 5 Sur 12 Sur 0 -- -- 64
2019-10-11 07:00:00 15.1 6 Sur 7 Sur 0 -- -- 62
2019-10-11 06:00:00 14 3 Este 11 Sudoeste 0 -- -- 62
2019-10-11 05:00:00 14.7 3 Sudoeste 6 Sur 0 -- -- 57
2019-10-11 04:00:00 14.1 3 Sudoeste 10 Oeste 0 -- -- 58
2019-10-11 03:00:00 15.2 0 Calma 4 Sur 0 -- -- 52
2019-10-11 02:00:00 14.4 2 Sur 4 Sur 0 -- -- 56
2019-10-11 01:00:00 14.9 0 Calma 8 Sur 0 -- -- 52
2019-10-11 00:00:00 14.6 5 Sur 8 Sudoeste 0 -- -- 52
2019-10-10 23:00:00 15.8 4 Sur 8 Sur 0 -- -- 48
2019-10-10 22:00:00 17.7 5 Sur 6 Sur 0 -- -- 44
2019-10-10 21:00:00 18.7 2 Oeste -- -- 0 -- -- 40
2019-10-10 20:00:00 19.8 5 Noroeste 9 Noroeste 0 -- -- 38
2019-10-10 19:00:00 22.6 7 Norte 14 Norte 0 -- -- 34
2019-10-10 18:00:00 23 10 Norte 19 Norte 0 -- -- 35
2019-10-10 17:00:00 22.9 12 Norte 26 Norte 0 -- -- 36
2019-10-10 16:00:00 22.9 15 Norte 26 Nordeste 0 -- -- 37
2019-10-10 15:00:00 22.6 8 Nordeste 20 Este 0 -- -- 40
2019-10-10 14:00:00 21.3 11 Nordeste 24 Este 0 -- -- 47
2019-10-10 13:00:00 20 15 Este 27 Este 0 -- -- 49
2019-10-10 12:00:00 16.9 16 Este 20 Este 0 -- -- 55
2019-10-10 11:00:00 11.9 9 Este 14 Este 0 -- -- 72
2019-10-10 10:00:00 8.2 3 Este 8 Nordeste 0 -- -- 84
2019-10-10 09:00:00 5.7 4 Nordeste 7 Norte 0 -- -- 90
2019-10-10 08:00:00 6.1 2 Este 8 Sur 0 -- -- 89
2019-10-10 07:00:00 6.4 0 Calma 5 Nordeste 0 -- -- 88
2019-10-10 06:00:00 6.6 3 Nordeste 10 Nordeste 0 -- -- 83
2019-10-10 05:00:00 8.8 6 Este 15 Norte 0 -- -- 72
2019-10-10 04:00:00 8.7 6 Sudeste 8 Sudeste 0 -- -- 73
2019-10-10 03:00:00 8.9 3 Este 13 Nordeste 0 -- -- 73
2019-10-10 02:00:00 11.8 4 Sudeste 12 Sudeste 0 -- -- 66
2019-10-10 01:00:00 12 8 Sudeste 12 Sudeste 0 -- -- 62
2019-10-10 00:00:00 12.9 8 Sudeste 11 Sudeste 0 -- -- 57
2019-10-09 23:00:00 13.6 4 Nordeste 12 Norte 0 -- -- 50
2019-10-09 22:00:00 14.6 12 Norte 14 Norte 0 -- -- 45
2019-10-09 21:00:00 15.2 9 Noroeste 13 Norte 0 -- -- 38
2019-10-09 20:00:00 17.8 10 Norte 16 Norte 0 -- -- 36
2019-10-09 19:00:00 20.5 11 Norte 17 Norte 0 -- -- 36
2019-10-09 18:00:00 21.2 12 Norte 19 Norte 0 -- -- 38
2019-10-09 17:00:00 21.3 10 Nordeste 21 Nordeste 0 -- -- 38
2019-10-09 16:00:00 21.2 11 Nordeste 23 Nordeste 0 -- -- 43
2019-10-09 15:00:00 20.3 10 Nordeste 18 Nordeste 0 -- -- 47
2019-10-09 14:00:00 19.3 6 Sudeste 26 Este 0 -- -- 56
2019-10-09 13:00:00 17.9 5 Nordeste 16 Sudeste 0 -- -- 62
2019-10-09 12:00:00 16.5 8 Este 13 Este 0 -- -- 64
2019-10-09 11:00:00 13.9 7 Nordeste 21 Norte 0 -- -- 70
2019-10-09 10:00:00 13 19 Norte 23 Norte 0 -- -- 75
2019-10-09 09:00:00 13.7 7 Nordeste 12 Norte 0 -- -- 87
2019-10-09 08:00:00 14.7 8 Noroeste 15 Norte 0 -- -- 87
2019-10-09 07:00:00 15.1 11 Noroeste 16 Oeste 0 -- -- 87
2019-10-09 06:00:00 15 9 Noroeste 14 Sudoeste 0 -- -- 88
2019-10-09 05:00:00 14.5 10 Sudoeste 17 Sudoeste 0 -- -- 86
2019-10-09 04:00:00 14.7 11 Sudoeste 16 Sudoeste 0 -- -- 84
2019-10-09 03:00:00 15.2 11 Oeste 17 Sudoeste 0 -- -- 80
2019-10-09 02:00:00 16.2 11 Oeste 18 Oeste 0 -- -- 71
2019-10-09 01:00:00 17.6 14 Oeste 19 Oeste 0 -- -- 66
2019-10-09 00:00:00 18.2 4 Sudoeste 12 Sudoeste 0 -- -- 61
2019-10-08 23:00:00 18.6 6 Sudoeste 13 Sudoeste 0 -- -- 58
2019-10-08 22:00:00 19.5 9 Oeste 17 Noroeste 0 -- -- 55
2019-10-08 21:00:00 20.3 14 Noroeste 17 Noroeste 0 -- -- 52
2019-10-08 20:00:00 23 13 Noroeste 21 Noroeste 0 -- -- 42
2019-10-08 19:00:00 26 17 Noroeste 30 Noroeste 0 -- -- 36
2019-10-08 18:00:00 27.1 18 Noroeste 29 Noroeste 0 -- -- 32
2019-10-08 17:00:00 27.5 14 Noroeste 28 Oeste 0 -- -- 31
2019-10-08 16:00:00 27.1 16 Oeste 29 Oeste 0 -- -- 32
2019-10-08 15:00:00 26.4 14 Oeste 25 Oeste 0 -- -- 31
2019-10-08 14:00:00 25.3 15 Oeste 23 Oeste 0 -- -- 33
2019-10-08 13:00:00 24.1 11 Oeste 21 Oeste 0 -- -- 37
2019-10-08 12:00:00 22.2 12 Oeste 18 Oeste 0 -- -- 38
2019-10-08 11:00:00 21.6 11 Oeste 15 Oeste 0 -- -- 38
2019-10-08 10:00:00 19.5 8 Sudoeste 14 Sudoeste 0 -- -- 41
2019-10-08 09:00:00 16.2 9 Sudoeste 15 Sudoeste 0 -- -- 50
2019-10-08 08:00:00 15 12 Sudoeste 17 Sudoeste 0 -- -- 56
2019-10-08 07:00:00 14.9 8 Sudoeste 13 Sudoeste 0 -- -- 57
2019-10-08 06:00:00 15.3 10 Oeste 11 Sudoeste 0 -- -- 57
2019-10-08 05:00:00 16.3 5 Sudoeste 10 Oeste 0 -- -- 53
2019-10-08 04:00:00 16 6 Sudoeste 9 Sur 0 -- -- 49
2019-10-08 03:00:00 16.2 4 Sur 9 Sur 0 -- -- 47
2019-10-08 02:00:00 16.5 4 Sur 8 Sur 0 -- -- 46
2019-10-08 01:00:00 16.8 4 Sur 9 Sur 0 -- -- 43
2019-10-08 00:00:00 17.1 5 Sur 9 Sudoeste 0 -- -- 42
2019-10-07 23:00:00 18.3 2 Sudeste 4 Sudoeste 0 -- -- 39
2019-10-07 22:00:00 18.9 0 Calma 3 Sur 0 -- -- 38
2019-10-07 21:00:00 20.1 0 Calma 3 Norte 0 -- -- 35
2019-10-07 20:00:00 22.1 2 Norte 6 Norte 0 -- -- 31
2019-10-07 19:00:00 24.2 5 Norte 11 Norte 0 -- -- 28
2019-10-07 18:00:00 24.5 8 Norte 17 Nordeste 0 -- -- 25
2019-10-07 17:00:00 24.5 10 Norte 19 Norte 0 -- -- 22
2019-10-07 16:00:00 24.4 10 Norte 17 Norte 0 -- -- 24
2019-10-07 15:00:00 23.9 5 Norte 17 Este 0 -- -- 26
2019-10-07 14:00:00 22.9 7 Norte 16 Nordeste 0 -- -- 22
2019-10-07 13:00:00 21.6 6 Nordeste 10 Nordeste 0 -- -- 27
2019-10-07 12:00:00 19.6 2 Nordeste 5 Norte 0 -- -- 42
2019-10-07 11:00:00 16.7 2 Norte 4 Nordeste 0 -- -- 51
2019-10-07 10:00:00 14.2 2 Oeste 6 Oeste 0 -- -- 58
2019-10-07 09:00:00 12.1 5 Noroeste 6 Noroeste 0 -- -- 62
2019-10-07 08:00:00 10.7 7 Oeste 9 Sudoeste 0 -- -- 65
2019-10-07 07:00:00 11.7 8 Sudoeste 13 Sudoeste 0 -- -- 62
2019-10-07 06:00:00 12.5 8 Sudoeste 14 Sudoeste 0 -- -- 60
2019-10-07 05:00:00 11.6 9 Oeste 15 Sudoeste 0 -- -- 63
2019-10-07 04:00:00 14 10 Sudoeste 14 Sudoeste 0 -- -- 55
2019-10-07 03:00:00 13.9 11 Sudoeste 18 Sudoeste 0 -- -- 56
2019-10-07 02:00:00 14.2 12 Sudoeste 22 Sudoeste 0 -- -- 55
2019-10-07 01:00:00 14.6 14 Sudoeste 18 Oeste 0 -- -- 54
2019-10-07 00:00:00 14.9 12 Oeste 13 Oeste 0 -- -- 53
2019-10-06 23:00:00 15.6 10 Oeste 12 Oeste 0 -- -- 52
2019-10-06 22:00:00 17.3 4 Noroeste 8 Noroeste 0 -- -- 48
2019-10-06 21:00:00 18 5 Noroeste 7 Oeste 0 -- -- 46
2019-10-06 20:00:00 19.8 5 Noroeste 15 Noroeste 0 -- -- 42
2019-10-06 19:00:00 22.3 12 Noroeste 18 Noroeste 0 -- -- 37
2019-10-06 18:00:00 23 12 Noroeste 16 Noroeste 0 -- -- 35
2019-10-06 17:00:00 22.9 5 Noroeste 15 Noroeste 0 -- -- 36
2019-10-06 16:00:00 22.4 7 Norte 16 Oeste 0 -- -- 38
2019-10-06 15:00:00 21.5 6 Noroeste 13 Norte 0 -- -- 40
2019-10-06 14:00:00 20 8 Noroeste 21 Noroeste 0 -- -- 51
2019-10-06 13:00:00 18.3 10 Noroeste 17 Noroeste 0 -- -- 48
2019-10-06 12:00:00 17.3 5 Noroeste 11 Norte 0 -- -- 57
2019-10-06 11:00:00 15.7 0 Calma 9 Oeste 0 -- -- 67
2019-10-06 10:00:00 13 6 Sudoeste 12 Sudoeste 0 -- -- 77
2019-10-06 09:00:00 10.6 9 Sudoeste 15 Sudoeste 0 -- -- 80
2019-10-06 08:00:00 10.3 9 Sudoeste 15 Sudoeste 0 -- -- 78
2019-10-06 07:00:00 11 11 Sudoeste 18 Sudoeste 0 -- -- 74
2019-10-06 06:00:00 10.9 12 Sudoeste 17 Sudoeste 0 -- -- 71
2019-10-06 05:00:00 11.8 12 Sudoeste 17 Sudoeste 0 -- -- 64
2019-10-06 04:00:00 11.2 10 Sudoeste 14 Sudoeste 0 -- -- 65
2019-10-06 03:00:00 12.7 9 Sudoeste 14 Sudoeste 0 -- -- 60
2019-10-06 02:00:00 12.2 4 Sudoeste 13 Sudoeste 0 -- -- 63
2019-10-06 01:00:00 13.7 8 Sudoeste 21 Sudoeste 0 -- -- 59
2019-10-06 00:00:00 14.5 13 Sudoeste 19 Sudoeste 0 -- -- 55
2019-10-05 23:00:00 15.3 13 Sudoeste 18 Sudoeste 0 -- -- 50
2019-10-05 22:00:00 16.4 12 Oeste 16 Oeste 0 -- -- 46
2019-10-05 21:00:00 17.5 12 Oeste 15 Oeste 0 -- -- 43
2019-10-05 20:00:00 19.3 12 Noroeste 22 Noroeste 0 -- -- 41
2019-10-05 19:00:00 23 16 Noroeste 24 Oeste 0 -- -- 36
2019-10-05 18:00:00 23.7 16 Noroeste 27 Oeste 0 -- -- 37
2019-10-05 17:00:00 23.9 16 Noroeste 26 Noroeste 0 -- -- 36
2019-10-05 16:00:00 23.5 12 Noroeste 26 Oeste 0 -- -- 37
2019-10-05 15:00:00 23.2 10 Noroeste 21 Oeste 0 -- -- 41
2019-10-05 14:00:00 21.4 5 Norte 13 Norte 0 -- -- 51
2019-10-05 13:00:00 20.2 5 Nordeste 10 Nordeste 0 -- -- 58
2019-10-05 12:00:00 18.1 2 Nordeste 8 Nordeste 0 -- -- 68
2019-10-05 11:00:00 15.6 2 Noroeste 7 Norte 0 -- -- 79
2019-10-05 10:00:00 13.4 0 Calma 2 Nordeste 0 -- -- 84
2019-10-05 09:00:00 11.6 3 Sur 12 Sudoeste 0 -- -- 83
2019-10-05 08:00:00 11.3 9 Sudoeste 11 Sudoeste 0 -- -- 85
2019-10-05 07:00:00 11.1 9 Sudoeste 10 Sudoeste 0 -- -- 85
2019-10-05 06:00:00 11.8 7 Sudoeste 12 Sudoeste 0 -- -- 82
2019-10-05 05:00:00 11.6 6 Sudoeste 10 Oeste 0 -- -- 83
2019-10-05 04:00:00 12.1 5 Sudoeste 8 Sudoeste 0 -- -- 80
2019-10-05 03:00:00 13.7 6 Sudoeste 10 Sudoeste 0 -- -- 75
2019-10-05 02:00:00 14.2 6 Sudoeste 10 Sudoeste 0 -- -- 73
2019-10-05 01:00:00 14.3 7 Sudoeste 10 Sudoeste 0 -- -- 72
2019-10-05 00:00:00 15.3 7 Sudoeste 9 Sudoeste 0 -- -- 68
2019-10-04 23:00:00 16.1 8 Oeste 12 Oeste 0 -- -- 65
2019-10-04 22:00:00 17.4 8 Oeste 10 Oeste 0 -- -- 62
2019-10-04 21:00:00 18.4 6 Oeste 8 Oeste 0 -- -- 60
2019-10-04 20:00:00 20.4 5 Oeste 13 Sudoeste 0 -- -- 55
2019-10-04 19:00:00 21.9 11 Oeste 22 Oeste 0 -- -- 53
2019-10-04 18:00:00 21.9 15 Oeste 24 Oeste 0 -- -- 54
2019-10-04 17:00:00 21.2 17 Oeste 30 Oeste 0 -- -- 56
2019-10-04 16:00:00 19.9 17 Oeste 27 Oeste 0 -- -- 62
2019-10-04 15:00:00 17.9 19 Noroeste 30 Noroeste 0 -- -- 76
2019-10-04 14:00:00 18.1 17 Oeste 26 Oeste 0 -- -- 74
2019-10-04 13:00:00 16.4 11 Oeste 22 Oeste 0 -- -- 83
2019-10-04 12:00:00 15 10 Oeste 15 Oeste 0 -- -- 89
2019-10-04 11:00:00 14.4 10 Oeste 18 Oeste 0 -- -- 92
2019-10-04 10:00:00 14.1 7 Sudoeste 16 Sudoeste 0 -- -- 90
2019-10-04 09:00:00 11.9 8 Sudoeste 13 Sudoeste 0 -- -- 89
2019-10-04 08:00:00 11.6 6 Sudoeste 12 Sudoeste 0 -- -- 87
2019-10-04 07:00:00 12.4 8 Sudoeste 12 Sudoeste 0 -- -- 87
2019-10-04 06:00:00 12.6 9 Sudoeste 10 Sudoeste 0 -- -- 85
2019-10-04 05:00:00 13.4 5 Sudoeste 10 Sudoeste 0 -- -- 80
2019-10-04 04:00:00 14.5 6 Sudoeste 17 Sudoeste 0 -- -- 76
2019-10-04 03:00:00 14.2 11 Sudoeste 20 Sudoeste 0 -- -- 71
2019-10-04 02:00:00 14 11 Sudoeste 21 Oeste 0 -- -- 61
2019-10-04 01:00:00 14.5 13 Sudoeste 18 Sudoeste 0 -- -- 50
2019-10-04 00:00:00 15.1 8 Sudoeste 15 Sudoeste 0 -- -- 48
2019-10-03 23:00:00 15.6 9 Sudoeste 15 Sudoeste 0 -- -- 45
2019-10-03 22:00:00 16.7 10 Oeste 14 Sudoeste 0 -- -- 43
2019-10-03 21:00:00 18.2 7 Oeste 10 Oeste 0 -- -- 41
2019-10-03 20:00:00 20 10 Oeste 15 Oeste 0 -- -- 37
2019-10-03 19:00:00 22.4 14 Oeste 22 Oeste 0 -- -- 33
2019-10-03 18:00:00 23.1 13 Oeste 27 Oeste 0 -- -- 33
2019-10-03 17:00:00 22.8 17 Noroeste 28 Noroeste 0 -- -- 33
2019-10-03 16:00:00 21.9 12 Noroeste 24 Oeste 0 -- -- 33
2019-10-03 15:00:00 21.2 13 Noroeste 23 Noroeste 0 -- -- 35
2019-10-03 14:00:00 20.3 14 Oeste 22 Noroeste 0 -- -- 39
2019-10-03 13:00:00 18.8 8 Noroeste 14 Sudoeste 0 -- -- 43
2019-10-03 12:00:00 17.1 8 Oeste 16 Oeste 0 -- -- 46
2019-10-03 11:00:00 16.2 6 Oeste 13 Sudoeste 0 -- -- 51
2019-10-03 10:00:00 13.7 9 Sudoeste 15 Sudoeste 0 -- -- 57
2019-10-03 09:00:00 10.2 10 Sudoeste 16 Sudoeste 0 -- -- 66
2019-10-03 08:00:00 9.8 10 Sudoeste 16 Sudoeste 0 -- -- 68
2019-10-03 07:00:00 9.2 8 Sudoeste 14 Sudoeste 0 -- -- 71
2019-10-03 06:00:00 8.6 7 Oeste 10 Oeste 0 -- -- 73
2019-10-03 05:00:00 9.8 5 Sudoeste 8 Sudoeste 0 -- -- 69
2019-10-03 04:00:00 10.6 5 Sur 9 Sudeste 0 -- -- 66
2019-10-03 03:00:00 9.9 6 Sudeste 14 Nordeste 0 -- -- 68
2019-10-03 02:00:00 12 5 Sudoeste 9 Sudoeste 0 -- -- 62
2019-10-03 01:00:00 11.1 6 Sudoeste 9 Sudoeste 0 -- -- 65
2019-10-03 00:00:00 11.8 7 Sudoeste 9 Sudoeste 0 -- -- 62
2019-10-02 23:00:00 12.4 4 Sudoeste 6 Sudoeste 0 -- -- 59
2019-10-02 22:00:00 14.2 0 Calma 3 Oeste 0 -- -- 53
2019-10-02 21:00:00 14.5 2 Noroeste 7 Norte 0 -- -- 52
2019-10-02 20:00:00 16.4 5 Norte 14 Nordeste 0 -- -- 46
2019-10-02 19:00:00 17.9 6 Norte 13 Norte 0 -- -- 43
2019-10-02 18:00:00 18.1 7 Norte 19 Este 0 -- -- 43
2019-10-02 17:00:00 18.2 7 Nordeste 17 Nordeste 0 -- -- 43
2019-10-02 16:00:00 17.6 9 Nordeste 22 Nordeste 0 -- -- 44
2019-10-02 15:00:00 16.8 10 Nordeste 18 Nordeste 0 -- -- 48
2019-10-02 14:00:00 15.8 6 Norte 15 Norte 0 -- -- 51
2019-10-02 13:00:00 14.3 7 Norte 14 Nordeste 0 -- -- 60
2019-10-02 12:00:00 13.1 6 Norte 12 Norte 0 -- -- 65
2019-10-02 11:00:00 12 6 Noroeste 17 Oeste 0 -- -- 70
2019-10-02 10:00:00 10.5 13 Oeste 18 Oeste 0 -- -- 84
2019-10-02 09:00:00 8.9 12 Oeste 22 Oeste 0 -- -- 92
2019-10-02 08:00:00 9 15 Oeste 26 Oeste 0 -- -- 91
2019-10-02 07:00:00 9.8 18 Oeste 26 Oeste 0 -- -- 90
2019-10-02 06:00:00 10.4 17 Oeste 26 Oeste 0 -- -- 88
2019-10-02 05:00:00 10.4 20 Oeste 37 Oeste 0 -- -- 88
2019-10-02 04:00:00 11.3 19 Oeste 30 Oeste 0 -- -- 85
2019-10-02 03:00:00 11.1 15 Oeste 23 Oeste 0 -- -- 84
2019-10-02 02:00:00 11.4 15 Sudoeste 25 Oeste 0 -- -- 81
2019-10-02 01:00:00 12.2 19 Oeste 30 Oeste 0 -- -- 75
2019-10-02 00:00:00 13 18 Oeste 25 Oeste 0 -- -- 70
2019-10-01 23:00:00 14.3 19 Oeste 26 Oeste 0 -- -- 65
2019-10-01 22:00:00 15.4 16 Oeste 25 Oeste 0 -- -- 61
2019-10-01 21:00:00 16 15 Oeste 23 Oeste 0 -- -- 58
2019-10-01 20:00:00 18.2 17 Oeste 32 Oeste 0 -- -- 53
2019-10-01 19:00:00 20 22 Oeste 38 Oeste 0 -- -- 48
2019-10-01 18:00:00 20.4 26 Oeste 40 Oeste 0 -- -- 46
2019-10-01 17:00:00 20.5 19 Oeste 36 Oeste 0 -- -- 52
2019-10-01 16:00:00 18.8 23 Oeste 34 Oeste 0 -- -- 61
2019-10-01 15:00:00 18.3 22 Oeste 36 Oeste 0 -- -- 66
2019-10-01 14:00:00 18.8 22 Noroeste 31 Noroeste 0 -- -- 61
2019-10-01 13:00:00 17.4 18 Oeste 33 Oeste 0 -- -- 67
2019-10-01 12:00:00 16.3 17 Oeste 31 Oeste 0 -- -- 73
2019-10-01 11:00:00 15.4 22 Oeste 32 Oeste 0 -- -- 78
2019-10-01 10:00:00 14.3 21 Oeste 28 Oeste 0 -- -- 84
2019-10-01 09:00:00 13.4 15 Oeste 26 Oeste 0 -- -- 92
2019-10-01 08:00:00 13.6 13 Oeste 25 Oeste 0 -- -- 92
2019-10-01 07:00:00 13.7 15 Oeste 31 Oeste 0 -- -- 87
2019-10-01 06:00:00 14.8 15 Oeste 19 Oeste 0 -- -- 68
2019-10-01 05:00:00 15.7 13 Sudoeste 19 Sudoeste 0 -- -- 57
2019-10-01 04:00:00 15.6 11 Sudoeste 17 Sudoeste 0 -- -- 54
2019-10-01 03:00:00 16.3 12 Sudoeste 22 Sudoeste 0 -- -- 49
2019-10-01 02:00:00 16.3 16 Sudoeste 21 Oeste 0 -- -- 45
2019-10-01 01:00:00 17.3 13 Sudoeste 21 Sudoeste 0 -- -- 41
2019-10-01 00:00:00 18.2 12 Sudoeste 24 Sudoeste 0 -- -- 38
2019-09-30 23:00:00 19.1 13 Sudoeste 24 Sudoeste 0 -- -- 36
2019-09-30 22:00:00 19.7 14 Sudoeste 24 Sudoeste 0 -- -- 33
2019-09-30 21:00:00 21.1 15 Sudoeste 24 Sudoeste 0 -- -- 32
2019-09-30 20:00:00 23.3 14 Oeste 23 Oeste 0 -- -- 30
2019-09-30 19:00:00 25.8 19 Oeste 33 Oeste 0 -- -- 27
2019-09-30 18:00:00 26.7 22 Oeste 33 Oeste 0 -- -- 26
2019-09-30 17:00:00 27 18 Oeste 30 Oeste 0 -- -- 26
2019-09-30 16:00:00 26.5 15 Noroeste 29 Oeste 0 -- -- 29
2019-09-30 15:00:00 26.1 14 Oeste 24 Oeste 0 -- -- 30
2019-09-30 14:00:00 25 14 Oeste 27 Oeste 0 -- -- 32
2019-09-30 13:00:00 22.9 2 Oeste 9 Este 0 -- -- 44
2019-09-30 12:00:00 20.8 4 Este 9 Este 0 -- -- 55
2019-09-30 11:00:00 18.3 6 Este 9 Este 0 -- -- 66
2019-09-30 10:00:00 16.4 6 Sudeste 7 Sudeste 0 -- -- 70
2019-09-30 09:00:00 12.5 0 Calma 11 Sudoeste 0 -- -- 81
2019-09-30 08:00:00 13 9 Sudoeste 11 Sudoeste 0 -- -- 77
2019-09-30 07:00:00 13.1 6 Sudoeste 9 Sudoeste 0 -- -- 75
2019-09-30 06:00:00 14.2 7 Sudoeste 13 Sudoeste 0 -- -- 71
2019-09-30 05:00:00 14.7 7 Sudoeste 13 Sudoeste 0 -- -- 66
2019-09-30 04:00:00 14.5 4 Sudoeste 12 Sudoeste 0 -- -- 60
2019-09-30 03:00:00 14.6 5 Sudoeste 13 Sudoeste 0 -- -- 57
2019-09-30 02:00:00 15.9 6 Sudoeste 15 Sudoeste 0 -- -- 54
2019-09-30 01:00:00 16.7 12 Sudoeste 17 Sudoeste 0 -- -- 46
2019-09-30 00:00:00 16.3 9 Sudoeste 14 Sudoeste 0 -- -- 46
2019-09-29 23:00:00 17.8 9 Sudoeste 12 Sudoeste 0 -- -- 43
2019-09-29 22:00:00 19 10 Oeste 15 Oeste 0 -- -- 37
2019-09-29 21:00:00 19.2 12 Oeste 14 Oeste 0 -- -- 34
2019-09-29 20:00:00 21.3 11 Oeste 23 Oeste 0 -- -- 30
2019-09-29 19:00:00 24.8 19 Oeste 27 Oeste 0 -- -- 22
2019-09-29 18:00:00 25.5 20 Oeste 36 Noroeste 0 -- -- 23
2019-09-29 17:00:00 25.7 19 Oeste 35 Oeste 0 -- -- 23
2019-09-29 16:00:00 25.5 20 Oeste 35 Noroeste 0 -- -- 27
2019-09-29 15:00:00 24.6 19 Oeste 30 Noroeste 0 -- -- 35
2019-09-29 14:00:00 23.4 20 Noroeste 29 Oeste 0 -- -- 36
2019-09-29 13:00:00 22.3 16 Noroeste 23 Noroeste 0 -- -- 43
2019-09-29 12:00:00 21.4 13 Oeste 18 Oeste 0 -- -- 39
2019-09-29 11:00:00 19.7 7 Sudoeste 13 Sudoeste 0 -- -- 45
2019-09-29 10:00:00 16.9 9 Sudoeste 14 Sudoeste 0 -- -- 48
2019-09-29 09:00:00 13.2 10 Sudoeste 13 Sudoeste 0 -- -- 54
2019-09-29 08:00:00 12.8 8 Sudoeste 12 Sudoeste 0 -- -- 54
2019-09-29 07:00:00 13.7 4 Sudoeste 10 Sudoeste 0 -- -- 52
2019-09-29 06:00:00 14.3 8 Sudoeste 12 Sudoeste 0 -- -- 51
2019-09-29 05:00:00 15 8 Sudoeste 15 Sudoeste 0 -- -- 49
2019-09-29 04:00:00 15 9 Sudoeste 17 Sudoeste 0 -- -- 51
2019-09-29 03:00:00 16.5 10 Sudoeste 16 Sudoeste 0 -- -- 47
2019-09-29 02:00:00 17.4 12 Sudoeste 19 Sudoeste 0 -- -- 45
2019-09-29 01:00:00 17.6 14 Sudoeste 19 Sudoeste 0 -- -- 43
2019-09-29 00:00:00 17.4 11 Sudoeste 15 Sudoeste 0 -- -- 45
2019-09-28 23:00:00 18.6 9 Sudoeste 15 Sudoeste 0 -- -- 42
2019-09-28 22:00:00 18.8 6 Sur 10 Sudoeste 0 -- -- 45
2019-09-28 21:00:00 20.7 4 Noroeste 6 Noroeste 0 -- -- 39
2019-09-28 20:00:00 23.1 5 Noroeste 9 Noroeste 0 -- -- 34
2019-09-28 19:00:00 25.3 5 Oeste 14 Noroeste 0 -- -- 28
2019-09-28 18:00:00 25.4 7 Noroeste 19 Noroeste 0 -- -- 27
2019-09-28 17:00:00 25.3 9 Noroeste 24 Noroeste 0 -- -- 28
2019-09-28 16:00:00 24.8 7 Noroeste 19 Noroeste 0 -- -- 32
2019-09-28 15:00:00 24.3 9 Oeste 18 Oeste 0 -- -- 32
2019-09-28 14:00:00 22.9 5 Norte 13 Oeste 0 -- -- 39
2019-09-28 13:00:00 20.7 4 Nordeste 10 Este 0 -- -- 51
2019-09-28 12:00:00 18.6 6 Este 17 Este 0 -- -- 62
2019-09-28 11:00:00 16.7 8 Este 12 Sudeste 0 -- -- 71
2019-09-28 10:00:00 14.5 4 Sudeste 7 Sudeste 0 -- -- 80
2019-09-28 09:00:00 11 2 Este 8 Sudeste 0 -- -- 90
2019-09-28 08:00:00 11.1 5 Sudeste 7 Sudeste 0 -- -- 90
2019-09-28 07:00:00 11.4 3 Sudeste 5 Sudeste 0 -- -- 89
2019-09-28 06:00:00 11 0 Calma 4 Sur 0 -- -- 89
2019-09-28 05:00:00 12.1 2 Sur 5 Sur 0 -- -- 87
2019-09-28 04:00:00 12 3 Sur 7 Sur 0 -- -- 86
2019-09-28 03:00:00 12.9 6 Sur 8 Sudoeste 0 -- -- 82
2019-09-28 02:00:00 13.4 7 Sudoeste 10 Oeste 0 -- -- 80
2019-09-28 01:00:00 13.9 9 Sudoeste 14 Oeste 0 -- -- 78
2019-09-28 00:00:00 15.1 9 Oeste 12 Oeste 0 -- -- 73
2019-09-27 23:00:00 16 9 Oeste 12 Oeste 0 -- -- 67
2019-09-27 22:00:00 16.3 9 Oeste 14 Noroeste 0 -- -- 62
2019-09-27 21:00:00 17.1 9 Oeste 14 Noroeste 0 -- -- 54
2019-09-27 20:00:00 20.7 12 Noroeste 21 Noroeste 0 -- -- 40
2019-09-27 19:00:00 22.7 17 Noroeste 25 Oeste 0 -- -- 34
2019-09-27 18:00:00 23.1 17 Noroeste 28 Noroeste 0 -- -- 34
2019-09-27 17:00:00 23 17 Oeste 29 Oeste 0 -- -- 34
2019-09-27 16:00:00 23 15 Oeste 26 Oeste 0 -- -- 33
2019-09-27 15:00:00 22.3 15 Oeste 26 Oeste 0 -- -- 32
2019-09-27 14:00:00 21.2 13 Oeste 20 Oeste 0 -- -- 37
2019-09-27 13:00:00 19.8 9 Noroeste 19 Noroeste 0 -- -- 44
2019-09-27 12:00:00 18.8 7 Oeste 17 Oeste 0 -- -- 53
2019-09-27 11:00:00 17.5 7 Oeste 13 Oeste 0 -- -- 64
2019-09-27 10:00:00 15.7 5 Sudoeste 13 Sudoeste 0 -- -- 65
2019-09-27 09:00:00 13.2 9 Sudoeste 13 Sudoeste 0 -- -- 66
2019-09-27 08:00:00 11.8 9 Sudoeste 18 Sudoeste 0 -- -- 67
2019-09-27 07:00:00 12.2 11 Sudoeste 16 Sudoeste 0 -- -- 61
2019-09-27 06:00:00 12.3 10 Sudoeste 16 Sudoeste 0 -- -- 55
2019-09-27 05:00:00 13.8 11 Sudoeste 15 Sudoeste 0 -- -- 50
2019-09-27 04:00:00 13.3 9 Sudoeste 12 Sudoeste 0 -- -- 52
2019-09-27 03:00:00 13.9 6 Sudoeste 12 Sudoeste 0 -- -- 51
2019-09-27 02:00:00 14.4 8 Sudoeste 13 Sudoeste 0 -- -- 48
2019-09-27 01:00:00 14.9 5 Sudoeste 10 Sudoeste 0 -- -- 48
2019-09-27 00:00:00 15.7 5 Sudoeste 13 Sudoeste 0 -- -- 47
2019-09-26 23:00:00 16.8 9 Sudoeste 14 Sudoeste 0 -- -- 44
2019-09-26 22:00:00 17.7 10 Sudoeste 13 Oeste 0 -- -- 42
2019-09-26 21:00:00 18.9 9 Oeste 14 Noroeste 0 -- -- 41
2019-09-26 20:00:00 21.6 12 Noroeste 23 Noroeste 0 -- -- 34
2019-09-26 19:00:00 23.8 17 Noroeste 28 Noroeste 0 -- -- 30
2019-09-26 18:00:00 24.3 19 Noroeste 31 Noroeste 0 -- -- 37
2019-09-26 17:00:00 24.2 15 Noroeste 30 Oeste 0 -- -- 41
2019-09-26 16:00:00 23.9 18 Oeste 31 Oeste 0 -- -- 46
2019-09-26 15:00:00 23.2 19 Oeste 31 Noroeste 0 -- -- 44
2019-09-26 14:00:00 22.2 17 Oeste 24 Oeste 0 -- -- 47
2019-09-26 13:00:00 20.6 12 Oeste 18 Oeste 0 -- -- 52
2019-09-26 12:00:00 18.2 2 Norte 6 Este 0 -- -- 65
2019-09-26 11:00:00 16 0 Calma 6 Norte 0 -- -- 74
2019-09-26 10:00:00 14 2 Oeste 7 Sudoeste 0 -- -- 83
2019-09-26 09:00:00 11.7 4 Sudoeste 9 Sudoeste 0 -- -- 89
2019-09-26 08:00:00 10.5 8 Sudoeste 9 Sudoeste 0 -- -- 90
2019-09-26 07:00:00 10.8 6 Sudoeste 9 Sudoeste 0 -- -- 89
2019-09-26 06:00:00 10.8 6 Sudoeste 10 Sudoeste 0 -- -- 86
2019-09-26 05:00:00 11.7 5 Oeste 10 Oeste 0 -- -- 83
2019-09-26 04:00:00 12.4 5 Oeste 13 Sudoeste 0 -- -- 80
2019-09-26 03:00:00 12.7 9 Sudoeste 13 Oeste 0 -- -- 78
2019-09-26 02:00:00 13.2 10 Sudoeste 14 Oeste 0 -- -- 76
2019-09-26 01:00:00 13.5 9 Sudoeste 13 Sudoeste 0 -- -- 75
2019-09-26 00:00:00 13.9 6 Sudoeste 14 Sudoeste 0 -- -- 72
2019-09-25 23:00:00 14.8 4 Sudoeste 6 Sudoeste 0 -- -- 69
2019-09-25 22:00:00 15.9 3 Sudoeste -- -- 0 -- -- 63
2019-09-25 21:00:00 16.8 3 Oeste 6 Oeste 0 -- -- 60
2019-09-25 20:00:00 18 6 Oeste 13 Oeste 0 -- -- 55
2019-09-25 19:00:00 19.2 9 Noroeste 19 Noroeste 0 -- -- 48
2019-09-25 18:00:00 19.6 13 Noroeste 21 Noroeste 0 -- -- 45
2019-09-25 17:00:00 19.7 10 Oeste 18 Oeste 0 -- -- 44
2019-09-25 16:00:00 18.9 5 Oeste 13 Noroeste 0 -- -- 48
2019-09-25 15:00:00 17.7 4 Noroeste 10 Sudoeste 0 -- -- 52
2019-09-25 14:00:00 16.2 5 Nordeste 10 Este 0 -- -- 55
2019-09-25 13:00:00 15.2 5 Nordeste 17 Nordeste 0 -- -- 61
2019-09-25 12:00:00 14.6 4 Noroeste 15 Sudoeste 0 -- -- 65
2019-09-25 11:00:00 12.5 11 Oeste 21 Oeste 0 -- -- 76
2019-09-25 10:00:00 11.1 13 Oeste 17 Oeste 0 -- -- 85
2019-09-25 09:00:00 9.8 6 Oeste 14 Oeste 0 -- -- 95
2019-09-25 08:00:00 9.6 8 Oeste 13 Sudoeste 0 -- -- 94
2019-09-25 07:00:00 10.6 9 Oeste 19 Oeste 0 -- -- 92
2019-09-25 06:00:00 11 11 Oeste 21 Oeste 0 -- -- 92
2019-09-25 05:00:00 11.1 12 Oeste 17 Oeste 0 -- -- 91
2019-09-25 04:00:00 11.3 8 Sudoeste 17 Oeste 0 -- -- 89
2019-09-25 03:00:00 12.1 8 Sudoeste 20 Oeste 0 -- -- 88
2019-09-25 02:00:00 12.7 13 Oeste 22 Oeste 0 -- -- 86
2019-09-25 01:00:00 13.7 16 Oeste 26 Oeste 0 -- -- 85
2019-09-25 00:00:00 13.9 15 Oeste 24 Sudoeste 0 -- -- 86
2019-09-24 23:00:00 14.8 22 Oeste 29 Oeste 0 -- -- 84
2019-09-24 22:00:00 16 13 Oeste 25 Oeste 0 -- -- 86
2019-09-24 21:00:00 16.4 16 Oeste 31 Oeste 0 -- -- 87
2019-09-24 20:00:00 17.3 23 Oeste 38 Oeste 0 -- -- 85
2019-09-24 19:00:00 17.8 21 Oeste 34 Oeste 0 -- -- 88
2019-09-24 18:00:00 17.1 26 Oeste 35 Oeste 0 -- -- 91
2019-09-24 17:00:00 18.6 31 Oeste 38 Oeste 0 -- -- 83
2019-09-24 16:00:00 20.1 21 Oeste 35 Oeste 0 -- -- 73
2019-09-24 15:00:00 20.8 18 Oeste 35 Oeste 0 -- -- 67
2019-09-24 14:00:00 20.4 26 Oeste 40 Oeste 0 -- -- 66
2019-09-24 13:00:00 19.6 25 Oeste 36 Sudoeste 0 -- -- 67
2019-09-24 12:00:00 18.4 20 Oeste 35 Sudoeste 0 -- -- 61
2019-09-24 11:00:00 17.5 19 Oeste 28 Oeste 0 -- -- 58
2019-09-24 10:00:00 15 12 Oeste 22 Oeste 0 -- -- 68
2019-09-24 09:00:00 11.5 12 Oeste 23 Sudoeste 0 -- -- 80
2019-09-24 08:00:00 11.1 16 Sudoeste 21 Sudoeste 0 -- -- 80
2019-09-24 07:00:00 11.4 13 Sudoeste 21 Oeste 0 -- -- 77
2019-09-24 06:00:00 11.6 14 Oeste 22 Oeste 0 -- -- 77
2019-09-24 05:00:00 12 10 Oeste 17 Oeste 0 -- -- 75
2019-09-24 04:00:00 13 12 Sudoeste 18 Sudoeste 0 -- -- 72
2019-09-24 03:00:00 13.8 12 Sudoeste 21 Sudoeste 0 -- -- 68
2019-09-24 02:00:00 13.4 11 Sudoeste 16 Oeste 0 -- -- 67
2019-09-24 01:00:00 14.5 11 Sudoeste 18 Sudoeste 0 -- -- 61
2019-09-24 00:00:00 14.8 10 Sudoeste 16 Sudoeste 0 -- -- 63
2019-09-23 23:00:00 15.5 9 Sudoeste 18 Oeste 0 -- -- 60
2019-09-23 22:00:00 16.2 11 Sudoeste 15 Sudoeste 0 -- -- 62
2019-09-23 21:00:00 17.4 7 Sudoeste 9 Sudoeste 0 -- -- 56
2019-09-23 20:00:00 19.2 5 Oeste 15 Oeste 0 -- -- 52
2019-09-23 19:00:00 20.2 12 Oeste 20 Oeste 0 -- -- 49
2019-09-23 18:00:00 20.8 12 Oeste 24 Oeste 0 -- -- 46
2019-09-23 17:00:00 20.9 13 Oeste 24 Oeste 0 -- -- 47
2019-09-23 16:00:00 19.9 17 Oeste 23 Oeste 0 -- -- 48
2019-09-23 15:00:00 19.2 14 Oeste 29 Oeste 0 -- -- 51
2019-09-23 14:00:00 18.3 15 Oeste 26 Oeste 0 -- -- 54
2019-09-23 13:00:00 17.3 13 Oeste 18 Oeste 0 -- -- 57
2019-09-23 12:00:00 15.5 3 Nordeste 13 Sudeste 0 -- -- 70
2019-09-23 11:00:00 14.1 7 Este 14 Sudeste 0 -- -- 75
2019-09-23 10:00:00 12.6 3 Sur 7 Sur 0 -- -- 83
2019-09-23 09:00:00 9.5 2 Sudoeste 8 Sudoeste 0 -- -- 92
2019-09-23 08:00:00 8.7 3 Sudoeste 8 Sudoeste 0 -- -- 93
2019-09-23 07:00:00 9 5 Sudoeste 10 Sur 0 -- -- 91
2019-09-23 06:00:00 9.7 7 Sudoeste 10 Sudoeste 0 -- -- 89
2019-09-23 05:00:00 10.2 8 Sudoeste 15 Sudoeste 0 -- -- 88
2019-09-23 04:00:00 10.6 11 Sudoeste 17 Sudoeste 0 -- -- 87
2019-09-23 03:00:00 10.9 9 Oeste 15 Oeste 0 -- -- 86
2019-09-23 02:00:00 11.9 9 Sudoeste 16 Sudoeste 0 -- -- 83
2019-09-23 01:00:00 12.4 9 Sudoeste 15 Sudoeste 0 -- -- 74
2019-09-23 00:00:00 11.9 4 Sudoeste 11 Sudoeste 0 -- -- 73
2019-09-22 23:00:00 12.4 7 Sudoeste 11 Sudoeste 0 -- -- 69
2019-09-22 22:00:00 12.8 9 Oeste 12 Oeste 0 -- -- 69
2019-09-22 21:00:00 13.4 10 Oeste 18 Noroeste 0 -- -- 73
2019-09-22 20:00:00 15.7 13 Noroeste 25 Oeste 0 -- -- 62
2019-09-22 19:00:00 17.3 21 Noroeste 30 Oeste 0 -- -- 51
2019-09-22 18:00:00 17.2 17 Oeste 33 Oeste 0 -- -- 56
2019-09-22 17:00:00 17.7 18 Oeste 32 Oeste 0 -- -- 54
2019-09-22 16:00:00 16.9 19 Oeste 33 Oeste 0 -- -- 64
2019-09-22 15:00:00 15 16 Oeste 25 Oeste 0 -- -- 76
2019-09-22 14:00:00 14.3 13 Noroeste 28 Oeste 0 -- -- 84
2019-09-22 13:00:00 14 18 Oeste 31 Noroeste 0 -- -- 84
2019-09-22 12:00:00 13.8 9 Oeste 22 Oeste 0 -- -- 82
2019-09-22 11:00:00 12.8 12 Oeste 21 Oeste 0 -- -- 86
2019-09-22 10:00:00 12.1 8 Oeste 14 Sudoeste 0 -- -- 90
2019-09-22 09:00:00 10.5 4 Sudoeste 14 Sur 0 -- -- 94
2019-09-22 08:00:00 10.4 9 Sudoeste 22 Oeste 0 -- -- 95
2019-09-22 07:00:00 10.2 8 Sudoeste 24 Oeste 0.2 -- -- 98
2019-09-22 06:00:00 10.5 14 Oeste 22 Oeste 0 -- -- 98
2019-09-22 05:00:00 10.5 14 Oeste 22 Oeste 0.2 -- -- 98
2019-09-22 04:00:00 10.4 19 Oeste 37 Noroeste 0.6 -- -- 98
2019-09-22 03:00:00 10.9 34 Noroeste 43 Noroeste 2.2 -- -- 96
2019-09-22 02:00:00 14.9 15 Oeste 24 Oeste 1.4 -- -- 93
2019-09-22 01:00:00 15.1 3 Sudoeste 8 Sudoeste 0.2 -- -- 86
2019-09-22 00:00:00 15.1 2 Sur 13 Sur 0 -- -- 86